createdAt,value
2018-08-17T00:00:55.581Z,20.27
2018-08-17T00:03:23.724Z,19.70
2018-08-17T00:05:55.811Z,21.13
2018-08-17T00:08:24.858Z,16.47
2018-08-17T00:10:53.027Z,20.40
2018-08-17T00:13:21.172Z,19.30
2018-08-17T00:15:49.263Z,21.23
2018-08-17T00:18:17.671Z,17.40
2018-08-17T00:20:47.930Z,18.73
2018-08-17T00:23:17.472Z,19.77
2018-08-17T00:25:46.118Z,18.97
2018-08-17T00:28:14.194Z,18.83
2018-08-17T00:30:42.274Z,16.87
2018-08-17T00:33:12.248Z,14.27
2018-08-17T00:35:40.714Z,14.43
2018-08-17T00:38:08.857Z,15.57
2018-08-17T00:40:36.896Z,20.40
2018-08-17T00:43:06.710Z,15.53
2018-08-17T00:45:34.757Z,16.57
2018-08-17T00:48:02.898Z,15.47
2018-08-17T00:50:31.061Z,24.73
2018-08-17T00:52:59.109Z,17.27
2018-08-17T00:55:27.198Z,22.90
2018-08-17T00:57:56.436Z,21.50
2018-08-17T01:00:24.493Z,16.43
2018-08-17T01:02:52.587Z,23.43
2018-08-17T01:05:20.605Z,24.67
2018-08-17T01:07:48.663Z,23.87
2018-08-17T01:10:16.738Z,27.10
2018-08-17T01:12:44.851Z,33.87
2018-08-17T01:15:14.396Z,26.47
2018-08-17T01:17:42.530Z,28.80
2018-08-17T01:20:10.680Z,26.87
2018-08-17T01:22:38.932Z,23.87
2018-08-17T01:25:07.000Z,24.07
2018-08-17T01:27:36.762Z,21.20
2018-08-17T01:30:04.955Z,24.63
2018-08-17T01:32:33.090Z,25.23
2018-08-17T01:35:02.748Z,15.73
2018-08-17T01:37:31.259Z,19.10
2018-08-17T01:40:00.049Z,18.60
2018-08-17T01:42:28.066Z,17.97
2018-08-17T01:44:57.144Z,18.53
2018-08-17T01:47:25.969Z,17.57
2018-08-17T01:49:54.129Z,16.23
2018-08-17T01:52:22.990Z,13.13
2018-08-17T01:54:52.633Z,17.80
2018-08-17T01:57:20.687Z,14.03
2018-08-17T01:59:49.085Z,17.63
2018-08-17T02:02:18.330Z,13.67
2018-08-17T02:04:47.313Z,12.47
2018-08-17T02:07:16.651Z,13.83
2018-08-17T02:09:44.910Z,14.73
2018-08-17T02:12:12.973Z,14.37
2018-08-17T02:14:42.633Z,14.10
2018-08-17T02:17:10.649Z,10.47
2018-08-17T02:19:39.603Z,13.13
2018-08-17T02:22:08.303Z,12.20
2018-08-17T02:24:38.123Z,9.20
2018-08-17T02:27:06.630Z,9.17
2018-08-17T02:29:34.652Z,12.77
2018-08-17T02:32:02.841Z,9.83
2018-08-17T02:34:32.276Z,13.10
2018-08-17T02:37:00.537Z,10.93
2018-08-17T02:39:29.161Z,9.10
2018-08-17T02:41:58.483Z,8.30
2018-08-17T02:44:28.131Z,13.00
2018-08-17T02:46:56.309Z,9.33
2018-08-17T02:49:25.193Z,9.73
2018-08-17T02:51:53.230Z,9.13
2018-08-17T02:54:22.977Z,8.30
2018-08-17T02:56:51.160Z,8.73
2018-08-17T02:59:19.529Z,9.17
2018-08-17T03:01:47.603Z,9.47
2018-08-17T03:04:18.794Z,9.20
2018-08-17T03:06:46.890Z,7.83
2018-08-17T03:09:15.033Z,7.87
2018-08-17T03:11:43.101Z,10.87
2018-08-17T03:14:11.348Z,7.93
2018-08-17T03:16:39.397Z,10.13
2018-08-17T03:19:07.446Z,10.73
2018-08-17T03:21:35.608Z,8.53
2018-08-17T03:24:05.146Z,8.63
2018-08-17T03:26:34.038Z,10.73
2018-08-17T03:29:02.138Z,9.33
2018-08-17T03:31:30.176Z,11.03
2018-08-17T03:34:00.102Z,10.33
2018-08-17T03:36:29.140Z,10.13
2018-08-17T03:38:57.225Z,14.30
2018-08-17T03:41:25.910Z,11.07
2018-08-17T03:43:53.962Z,9.70
2018-08-17T03:46:23.155Z,13.23
2018-08-17T03:48:51.261Z,10.07
2018-08-17T03:51:19.305Z,9.33
2018-08-17T03:53:47.786Z,9.97
2018-08-17T03:56:17.319Z,12.67
2018-08-17T03:58:47.924Z,7.50
2018-08-17T04:01:16.208Z,9.70
2018-08-17T04:03:45.110Z,8.20
2018-08-17T04:06:15.365Z,9.90
2018-08-17T04:08:43.891Z,8.30
2018-08-17T04:11:12.033Z,9.03
2018-08-17T04:13:40.081Z,8.33
2018-08-17T04:16:09.680Z,8.23
2018-08-17T04:18:37.813Z,8.03
2018-08-17T04:21:07.040Z,6.70
2018-08-17T04:23:35.057Z,5.13
2018-08-17T04:26:04.375Z,6.20
2018-08-17T04:28:33.082Z,8.43
2018-08-17T04:31:01.149Z,6.47
2018-08-17T04:33:30.663Z,9.33
2018-08-17T04:35:58.885Z,11.17
2018-08-17T04:38:26.917Z,10.97
2018-08-17T04:40:54.965Z,12.57
2018-08-17T04:43:24.322Z,12.27
2018-08-17T04:45:55.018Z,12.87
2018-08-17T04:48:23.125Z,8.20
2018-08-17T04:50:51.186Z,18.90
2018-08-17T04:53:20.052Z,22.67
2018-08-17T04:55:49.506Z,14.07
2018-08-17T04:58:17.605Z,16.70
2018-08-17T05:00:45.667Z,13.97
2018-08-17T05:03:15.168Z,12.80
2018-08-17T05:05:46.240Z,17.30
2018-08-17T05:08:14.375Z,15.53
2018-08-17T05:10:42.413Z,15.60
2018-08-17T05:13:10.836Z,10.33
2018-08-17T05:15:40.921Z,11.23
2018-08-17T05:18:09.611Z,9.77
2018-08-17T05:20:41.888Z,8.60
2018-08-17T05:23:11.041Z,10.15
2018-08-17T05:25:39.125Z,7.67
2018-08-17T05:28:07.231Z,9.70
2018-08-17T05:30:36.735Z,6.87
2018-08-17T05:33:04.896Z,7.87
2018-08-17T05:35:33.147Z,6.93
2018-08-17T05:38:01.646Z,7.00
2018-08-17T05:40:31.825Z,8.80
2018-08-17T05:42:59.922Z,7.77
2018-08-17T05:45:29.775Z,11.17
2018-08-17T05:47:57.828Z,10.10
2018-08-17T05:50:28.572Z,9.83
2018-08-17T05:52:58.795Z,13.50
2018-08-17T05:55:26.876Z,11.03
2018-08-17T05:57:55.030Z,11.37
2018-08-17T06:00:23.275Z,21.57
2018-08-17T06:02:52.884Z,22.70
2018-08-17T06:05:22.333Z,44.20
2018-08-17T06:07:54.391Z,10.67
2018-08-17T06:10:23.657Z,12.37
2018-08-17T06:12:54.057Z,14.17
2018-08-17T06:15:22.086Z,11.93
2018-08-17T06:17:50.610Z,13.40
2018-08-17T06:20:18.693Z,12.20
2018-08-17T06:22:46.963Z,13.70
2018-08-17T06:25:16.929Z,9.23
2018-08-17T06:27:45.029Z,9.50
2018-08-17T06:30:13.697Z,14.07
2018-08-17T06:32:41.803Z,14.93
2018-08-17T06:35:11.288Z,9.00
2018-08-17T06:37:40.893Z,8.30
2018-08-17T06:40:09.722Z,10.60
2018-08-17T06:42:39.998Z,13.10
2018-08-17T06:45:11.177Z,15.77
2018-08-17T06:47:39.433Z,16.10
2018-08-17T06:50:08.754Z,16.93
2018-08-17T06:52:38.379Z,13.93
2018-08-17T06:55:07.828Z,13.47
2018-08-17T06:57:35.889Z,14.13
2018-08-17T07:00:07.209Z,14.10
2018-08-17T07:02:35.295Z,11.33
2018-08-17T07:05:03.782Z,15.60
2018-08-17T07:07:34.479Z,15.40
2018-08-17T07:10:02.637Z,9.77
2018-08-17T07:12:32.425Z,16.17
2018-08-17T07:15:01.917Z,15.60
2018-08-17T07:17:29.982Z,14.50
2018-08-17T07:19:59.540Z,14.23
2018-08-17T07:22:27.698Z,11.67
2018-08-17T07:24:59.084Z,10.33
2018-08-17T07:27:29.673Z,8.53
2018-08-17T07:29:57.723Z,8.10
2018-08-17T07:32:25.833Z,6.37
2018-08-17T07:34:53.946Z,6.20
2018-08-17T07:37:21.985Z,8.73
2018-08-17T07:39:50.049Z,6.93
2018-08-17T07:42:20.315Z,7.23
2018-08-17T07:44:50.522Z,9.30
2018-08-17T07:47:18.645Z,12.00
2018-08-17T07:49:46.805Z,9.70
2018-08-17T07:52:15.283Z,7.33
2018-08-17T07:54:44.020Z,7.30
2018-08-17T07:57:13.009Z,11.13
2018-08-17T07:59:41.685Z,9.73
2018-08-17T08:02:12.013Z,7.60
2018-08-17T08:04:41.753Z,8.53
2018-08-17T08:07:09.896Z,9.50
2018-08-17T08:09:38.037Z,8.37
2018-08-17T08:12:06.292Z,10.20
2018-08-17T08:14:36.115Z,12.67
2018-08-17T08:17:04.218Z,15.43
2018-08-17T08:19:32.541Z,14.47
2018-08-17T08:22:01.709Z,15.00
2018-08-17T08:24:34.919Z,7.93
2018-08-17T08:27:04.457Z,7.80
2018-08-17T08:29:33.129Z,7.30
2018-08-17T08:32:01.304Z,7.17
2018-08-17T08:34:29.405Z,6.03
2018-08-17T08:36:59.190Z,6.50
2018-08-17T08:39:27.368Z,4.83
2018-08-17T08:41:55.672Z,7.50
2018-08-17T08:44:23.781Z,7.37
2018-08-17T08:46:52.589Z,6.67
2018-08-17T08:49:20.827Z,4.70
2018-08-17T08:51:48.934Z,5.03
2018-08-17T08:54:16.990Z,5.13
2018-08-17T08:56:45.107Z,6.03
2018-08-17T08:59:13.141Z,5.03
2018-08-17T09:01:41.236Z,6.70
2018-08-17T09:04:10.433Z,6.00
2018-08-17T09:06:39.920Z,6.43
2018-08-17T09:09:08.294Z,5.53
2018-08-17T09:11:36.354Z,5.10
2018-08-17T09:14:04.751Z,6.07
2018-08-17T09:16:33.963Z,5.77
2018-08-17T09:19:02.037Z,6.30
2018-08-17T09:21:31.364Z,6.90
2018-08-17T09:24:00.914Z,6.77
2018-08-17T09:26:29.149Z,5.60
2018-08-17T09:28:57.423Z,6.10
2018-08-17T09:31:25.504Z,5.53
2018-08-17T09:33:54.551Z,4.53
2018-08-17T09:36:23.568Z,5.73
2018-08-17T09:38:51.598Z,8.07
2018-08-17T09:41:20.903Z,6.70
2018-08-17T09:43:49.684Z,6.57
2018-08-17T09:46:17.737Z,6.23
2018-08-17T09:48:46.062Z,9.70
2018-08-17T09:51:14.958Z,5.67
2018-08-17T09:53:45.103Z,8.33
2018-08-17T09:56:15.254Z,6.27
2018-08-17T09:58:43.477Z,7.67
2018-08-17T10:01:12.992Z,5.80
2018-08-17T10:03:41.119Z,5.87
2018-08-17T10:06:10.993Z,6.83
2018-08-17T10:08:39.357Z,9.10
2018-08-17T10:11:07.441Z,8.13
2018-08-17T10:13:35.484Z,7.50
2018-08-17T10:16:03.656Z,7.67
2018-08-17T10:18:33.244Z,8.50
2018-08-17T10:21:01.483Z,9.40
2018-08-17T10:23:29.521Z,7.60
2018-08-17T10:25:59.060Z,10.67
2018-08-17T10:28:27.210Z,6.67
2018-08-17T10:30:55.261Z,8.97
2018-08-17T10:33:24.409Z,9.27
2018-08-17T10:35:53.642Z,7.47
2018-08-17T10:38:21.989Z,9.10
2018-08-17T10:40:50.385Z,8.77
2018-08-17T10:43:20.669Z,6.50
2018-08-17T10:45:48.789Z,8.30
2018-08-17T10:48:16.892Z,8.57
2018-08-17T10:50:44.970Z,8.03
2018-08-17T10:53:14.093Z,8.40
2018-08-17T10:55:42.294Z,10.40
2018-08-17T10:58:10.970Z,8.30
2018-08-17T11:00:40.152Z,9.83
2018-08-17T11:03:08.249Z,6.83
2018-08-17T11:05:37.099Z,9.67
2018-08-17T11:08:07.578Z,5.47
2018-08-17T11:10:36.889Z,4.63
2018-08-17T11:13:05.098Z,7.07
2018-08-17T11:15:33.446Z,6.90
2018-08-17T11:18:03.110Z,3.83
2018-08-17T11:20:31.334Z,5.77
2018-08-17T11:23:01.282Z,5.93
2018-08-17T11:25:30.007Z,5.63
2018-08-17T11:27:58.229Z,7.53
2018-08-17T11:30:26.274Z,9.30
2018-08-17T11:32:54.530Z,11.87
2018-08-17T11:35:24.384Z,10.00
2018-08-17T11:37:54.353Z,8.97
2018-08-17T11:40:22.857Z,8.40
2018-08-17T11:42:51.185Z,8.00
2018-08-17T11:45:19.317Z,6.03
2018-08-17T11:47:47.404Z,9.83
2018-08-17T11:50:20.281Z,11.10
2018-08-17T11:52:49.224Z,9.57
2018-08-17T11:55:17.305Z,9.07
2018-08-17T11:57:45.517Z,9.20
2018-08-17T12:00:14.423Z,8.67
2018-08-17T12:02:42.535Z,8.87
2018-08-17T12:05:10.591Z,8.67
2018-08-17T12:07:38.693Z,7.47
2018-08-17T12:10:06.935Z,7.87
2018-08-17T12:12:36.009Z,9.80
2018-08-17T12:15:05.853Z,7.93
2018-08-17T12:17:34.389Z,9.97
2018-08-17T12:20:03.308Z,5.50
2018-08-17T12:22:31.517Z,12.77
2018-08-17T12:25:00.119Z,8.47
2018-08-17T12:27:29.945Z,9.57
2018-08-17T12:29:58.857Z,9.00
2018-08-17T12:32:26.930Z,7.30
2018-08-17T12:34:55.789Z,9.83
2018-08-17T12:37:24.010Z,8.73
2018-08-17T12:39:52.030Z,8.77
2018-08-17T12:42:20.145Z,12.07
2018-08-17T12:44:50.131Z,6.57
2018-08-17T12:47:18.951Z,5.90
2018-08-17T12:49:47.049Z,8.13
2018-08-17T12:52:15.100Z,7.03
2018-08-17T12:54:44.569Z,9.83
2018-08-17T12:57:14.591Z,8.07
2018-08-17T12:59:42.622Z,10.10
2018-08-17T13:02:10.667Z,14.33
2018-08-17T13:04:38.694Z,9.37
2018-08-17T13:07:07.721Z,7.87
2018-08-17T13:09:35.877Z,7.20
2018-08-17T13:12:03.957Z,6.87
2018-08-17T13:14:32.205Z,9.73
2018-08-17T13:17:01.780Z,10.27
2018-08-17T13:19:29.790Z,6.30
2018-08-17T13:21:59.300Z,12.60
2018-08-17T13:24:27.310Z,8.27
2018-08-17T13:26:55.340Z,6.60
2018-08-17T13:29:23.386Z,11.00
2018-08-17T13:31:51.771Z,7.30
2018-08-17T13:34:21.598Z,6.93
2018-08-17T13:36:49.914Z,6.47
2018-08-17T13:39:18.785Z,7.93
2018-08-17T13:41:48.409Z,8.00
2018-08-17T13:44:16.702Z,6.60
2018-08-17T13:46:46.164Z,10.33
2018-08-17T13:49:14.315Z,8.07
2018-08-17T13:51:42.425Z,10.57
2018-08-17T13:54:10.516Z,8.23
2018-08-17T13:56:38.618Z,6.27
2018-08-17T13:59:07.550Z,9.60
2018-08-17T14:01:38.659Z,10.60
2018-08-17T14:04:07.377Z,9.50
2018-08-17T14:06:35.898Z,4.53
2018-08-17T14:09:06.303Z,10.67
2018-08-17T14:11:34.490Z,7.07
2018-08-17T14:14:02.770Z,6.77
2018-08-17T14:16:33.258Z,7.30
2018-08-17T14:19:02.949Z,5.20
2018-08-17T14:21:31.085Z,5.73
2018-08-17T14:23:59.422Z,5.97
2018-08-17T14:26:27.469Z,8.53
2018-08-17T14:28:55.564Z,4.53
2018-08-17T14:31:24.308Z,4.63
2018-08-17T14:33:52.512Z,6.13
2018-08-17T14:36:21.597Z,6.67
2018-08-17T14:38:50.244Z,6.23
2018-08-17T14:41:18.298Z,5.63
2018-08-17T14:43:46.356Z,7.30
2018-08-17T14:46:14.780Z,3.07
2018-08-17T14:48:42.860Z,5.37
2018-08-17T14:51:10.951Z,7.57
2018-08-17T14:53:39.082Z,3.37
2018-08-17T14:56:07.970Z,4.33
2018-08-17T14:58:37.726Z,4.30
2018-08-17T15:01:05.867Z,5.53
2018-08-17T15:03:36.419Z,5.07
2018-08-17T15:06:06.192Z,6.27
2018-08-17T15:08:34.202Z,4.13
2018-08-17T15:11:02.266Z,6.40
2018-08-17T15:13:31.358Z,5.10
2018-08-17T15:16:00.336Z,3.93
2018-08-17T15:18:28.514Z,5.87
2018-08-17T15:20:56.986Z,4.67
2018-08-17T15:23:26.946Z,5.43
2018-08-17T15:25:55.738Z,7.73
2018-08-17T15:28:23.794Z,4.63
2018-08-17T15:30:51.919Z,7.10
2018-08-17T15:33:20.034Z,5.53
2018-08-17T15:35:48.212Z,4.77
2018-08-17T15:38:16.274Z,3.57
2018-08-17T15:40:44.448Z,3.23
2018-08-17T15:43:12.524Z,5.97
2018-08-17T15:45:40.616Z,4.87
2018-08-17T15:48:08.669Z,3.67
2018-08-17T15:50:36.785Z,4.87
2018-08-17T15:53:04.912Z,5.57
2018-08-17T15:55:32.985Z,3.50
2018-08-17T15:58:01.175Z,5.90
2018-08-17T16:00:29.292Z,4.73
2018-08-17T16:02:57.406Z,5.10
2018-08-17T16:05:25.489Z,3.37
2018-08-17T16:07:54.613Z,3.77
2018-08-17T16:10:23.337Z,9.87
2018-08-17T16:12:51.500Z,7.77
2018-08-17T16:15:19.723Z,4.60
2018-08-17T16:17:47.879Z,5.60
2018-08-17T16:20:16.045Z,5.90
2018-08-17T16:22:44.178Z,3.47
2018-08-17T16:28:15.132Z,4.37
2018-08-17T16:30:43.162Z,4.70
2018-08-17T16:33:11.237Z,4.67
2018-08-17T16:35:40.226Z,3.67
2018-08-17T16:38:09.226Z,4.37
2018-08-17T16:40:37.296Z,4.10
2018-08-17T16:43:05.617Z,5.10
2018-08-17T16:45:33.758Z,3.20
2018-08-17T16:48:01.847Z,4.37
2018-08-17T16:50:29.924Z,1.70
2018-08-17T16:52:58.540Z,5.40
2018-08-17T16:55:26.667Z,7.20
2018-08-17T16:57:55.830Z,3.37
2018-08-17T17:00:24.072Z,6.20
2018-08-17T17:02:52.166Z,3.13
2018-08-17T17:05:20.376Z,4.30
2018-08-17T17:07:48.501Z,5.03
2018-08-17T17:10:16.686Z,5.67
2018-08-17T17:12:44.774Z,5.20
2018-08-17T17:15:12.842Z,5.17
2018-08-17T17:17:40.976Z,3.30
2018-08-17T17:20:09.063Z,6.37
2018-08-17T17:22:37.746Z,3.73
2018-08-17T17:25:07.370Z,4.57
2018-08-17T17:27:36.120Z,3.87
2018-08-17T17:30:05.438Z,5.13
2018-08-17T17:32:33.559Z,4.60
2018-08-17T17:35:01.691Z,5.87
2018-08-17T17:37:29.785Z,3.57
2018-08-17T17:39:58.084Z,4.53
2018-08-17T17:42:26.295Z,8.90
2018-08-17T17:44:54.408Z,6.13
2018-08-17T17:47:22.536Z,6.67
2018-08-17T17:49:50.629Z,5.70
2018-08-17T17:52:18.748Z,5.57
2018-08-17T17:54:46.836Z,4.40
2018-08-17T17:57:15.071Z,4.43
2018-08-17T17:59:43.173Z,4.23
2018-08-17T18:02:11.216Z,6.87
2018-08-17T18:04:39.359Z,5.87
2018-08-17T18:07:07.436Z,5.00
2018-08-17T18:09:35.542Z,4.30
2018-08-17T18:12:03.678Z,6.00
2018-08-17T18:14:31.767Z,4.03
2018-08-17T18:16:59.913Z,5.93
2018-08-17T18:19:28.060Z,5.63
2018-08-17T18:21:56.137Z,5.33
2018-08-17T18:24:24.241Z,5.13
2018-08-17T18:26:52.326Z,5.27
2018-08-17T18:29:20.425Z,4.70
2018-08-17T18:31:48.784Z,7.53
2018-08-17T18:34:16.886Z,5.03
2018-08-17T18:36:45.094Z,4.73
2018-08-17T18:39:14.060Z,3.67
2018-08-17T18:41:42.235Z,4.37
2018-08-17T18:44:10.327Z,5.00
2018-08-17T18:46:39.650Z,2.93
2018-08-17T18:49:07.770Z,4.43
2018-08-17T18:51:35.815Z,5.80
2018-08-17T18:54:04.095Z,3.43
2018-08-17T18:56:32.210Z,5.13
2018-08-17T18:59:00.270Z,2.90
2018-08-17T19:01:28.400Z,4.53
2018-08-17T19:03:57.384Z,4.60
2018-08-17T19:06:25.524Z,2.77
2018-08-17T19:08:53.574Z,4.43
2018-08-17T19:11:21.680Z,4.57
2018-08-17T19:13:49.793Z,5.70
2018-08-17T19:16:17.865Z,7.20
2018-08-17T19:18:45.936Z,5.23
2018-08-17T19:21:14.005Z,7.97
2018-08-17T19:23:42.126Z,6.23
2018-08-17T19:26:10.630Z,6.07
2018-08-17T19:28:38.713Z,4.07
2018-08-17T19:31:07.001Z,4.60
2018-08-17T19:33:35.083Z,8.33
2018-08-17T19:36:03.245Z,5.50
2018-08-17T19:38:38.156Z,6.27
2018-08-17T19:41:06.284Z,2.93
2018-08-17T19:43:34.475Z,3.57
2018-08-17T19:46:02.699Z,4.93
2018-08-17T19:48:31.155Z,6.57
2018-08-17T19:50:59.276Z,5.73
2018-08-17T19:53:28.265Z,6.37
2018-08-17T19:55:56.330Z,2.50
2018-08-17T19:58:24.605Z,6.70
2018-08-17T20:00:52.602Z,5.80
2018-08-17T20:03:20.649Z,5.47
2018-08-17T20:05:48.773Z,7.17
2018-08-17T20:08:16.870Z,4.97
2018-08-17T20:10:46.397Z,8.83
2018-08-17T20:13:14.897Z,4.53
2018-08-17T20:15:43.047Z,9.10
2018-08-17T20:18:11.257Z,9.77
2018-08-17T20:20:39.361Z,4.13
2018-08-17T20:23:07.488Z,5.87
2018-08-17T20:25:35.570Z,9.53
2018-08-17T20:28:03.702Z,8.83
2018-08-17T20:30:31.777Z,4.53
2018-08-17T20:32:59.898Z,6.67
2018-08-17T20:35:28.041Z,5.07
2018-08-17T20:37:56.153Z,5.80
2018-08-17T20:40:24.233Z,5.87
2018-08-17T20:42:52.329Z,6.47
2018-08-17T20:45:25.424Z,4.87
2018-08-17T20:47:53.677Z,8.87
2018-08-17T20:50:21.796Z,6.80
2018-08-17T20:52:50.150Z,7.20
2018-08-17T20:55:18.265Z,8.57
2018-08-17T20:57:46.897Z,7.20
2018-08-17T21:00:14.968Z,4.73
2018-08-17T21:02:43.133Z,5.97
2018-08-17T21:05:11.197Z,7.43
2018-08-17T21:07:39.261Z,3.93
2018-08-17T21:10:07.888Z,8.90
2018-08-17T21:12:35.977Z,6.77
2018-08-17T21:15:04.100Z,5.73
2018-08-17T21:17:32.161Z,7.67
2018-08-17T21:20:00.228Z,8.13
2018-08-17T21:22:28.298Z,6.23
2018-08-17T21:24:57.261Z,5.30
2018-08-17T21:27:26.050Z,6.57
2018-08-17T21:29:54.629Z,7.30
2018-08-17T21:32:22.784Z,6.33
2018-08-17T21:34:50.919Z,6.87
2018-08-17T21:37:18.970Z,5.47
2018-08-17T21:39:47.569Z,5.50
2018-08-17T21:42:16.768Z,7.90
2018-08-17T21:44:44.880Z,4.47
2018-08-17T21:47:15.470Z,3.97
2018-08-17T21:49:43.636Z,7.93
2018-08-17T21:52:11.738Z,5.40
2018-08-17T21:54:41.842Z,4.20
2018-08-17T21:57:10.445Z,6.53
2018-08-17T21:59:39.385Z,3.50
2018-08-17T22:02:10.286Z,3.50
2018-08-17T22:04:38.878Z,6.83
2018-08-17T22:07:07.048Z,6.47
2018-08-17T22:09:37.617Z,5.77
2018-08-17T22:12:06.353Z,5.50
2018-08-17T22:14:36.046Z,6.13
2018-08-17T22:17:04.111Z,8.90
2018-08-17T22:19:37.703Z,4.83
2018-08-17T22:22:07.140Z,3.10
2018-08-17T22:24:35.226Z,8.13
2018-08-17T22:27:03.300Z,7.37
2018-08-17T22:29:31.401Z,5.77
2018-08-17T22:31:59.408Z,6.53
2018-08-17T22:34:27.476Z,4.63
2018-08-17T22:36:55.533Z,5.17
2018-08-17T22:39:24.825Z,7.33
2018-08-17T22:41:57.019Z,6.87
2018-08-17T22:44:24.943Z,3.57
2018-08-17T22:47:30.129Z,6.00
2018-08-17T22:49:58.560Z,3.57
2018-08-17T22:52:27.138Z,4.00
2018-08-17T22:54:55.221Z,3.97
2018-08-17T22:57:23.470Z,5.60
2018-08-17T23:00:03.237Z,4.07
2018-08-17T23:02:34.357Z,3.07
2018-08-17T23:05:05.707Z,4.80
2018-08-17T23:07:35.229Z,6.43
2018-08-17T23:10:04.251Z,6.67
2018-08-17T23:12:32.381Z,6.57
2018-08-17T23:15:00.430Z,4.03
2018-08-17T23:17:28.460Z,5.13
2018-08-17T23:19:58.374Z,4.93
2018-08-17T23:22:26.714Z,2.93
2018-08-17T23:24:56.369Z,4.33
2018-08-17T23:27:24.788Z,4.10
2018-08-17T23:29:55.057Z,3.67
2018-08-17T23:32:23.509Z,3.40
2018-08-17T23:34:53.442Z,3.57
2018-08-17T23:37:22.185Z,4.67
2018-08-17T23:39:50.229Z,4.07
2018-08-17T23:42:18.298Z,5.47
2018-08-17T23:44:47.194Z,3.07
2018-08-17T23:47:17.331Z,2.20
2018-08-17T23:49:47.210Z,3.13
2018-08-17T23:52:15.504Z,3.93
2018-08-17T23:54:43.623Z,4.73
2018-08-17T23:57:13.550Z,4.30
2018-08-17T23:59:43.591Z,4.77
